sensor_id;sensor_type;location;lat;lon;timestamp;P1;durP1;ratioP1;P2;durP2;ratioP2
42886;SDS011;29032;56.028;92.904;2023-05-01T00:03:30;7.87;;;6.27;;
42886;SDS011;29032;56.028;92.904;2023-05-01T00:08:33;8.07;;;6.73;;
42886;SDS011;29032;56.028;92.904;2023-05-01T00:13:35;9.07;;;6.07;;
42886;SDS011;29032;56.028;92.904;2023-05-01T00:18:38;7.93;;;6.13;;
42886;SDS011;29032;56.028;92.904;2023-05-01T00:23:40;7.27;;;6.17;;
42886;SDS011;29032;56.028;92.904;2023-05-01T00:28:42;11.80;;;8.20;;
42886;SDS011;29032;56.028;92.904;2023-05-01T00:34:04;7.77;;;6.30;;
42886;SDS011;29032;56.028;92.904;2023-05-01T00:39:07;10.40;;;7.37;;
42886;SDS011;29032;56.028;92.904;2023-05-01T00:44:27;9.60;;;7.10;;
42886;SDS011;29032;56.028;92.904;2023-05-01T00:49:49;9.43;;;7.13;;
42886;SDS011;29032;56.028;92.904;2023-05-01T00:54:52;10.83;;;6.73;;
42886;SDS011;29032;56.028;92.904;2023-05-01T00:59:55;9.63;;;7.10;;
42886;SDS011;29032;56.028;92.904;2023-05-01T01:04:58;9.00;;;7.17;;
42886;SDS011;29032;56.028;92.904;2023-05-01T01:10:06;8.00;;;6.40;;
42886;SDS011;29032;56.028;92.904;2023-05-01T01:15:17;10.03;;;7.97;;
42886;SDS011;29032;56.028;92.904;2023-05-01T01:20:33;10.67;;;7.23;;
42886;SDS011;29032;56.028;92.904;2023-05-01T01:31:19;8.57;;;6.63;;
42886;SDS011;29032;56.028;92.904;2023-05-01T01:36:36;7.90;;;6.80;;
42886;SDS011;29032;56.028;92.904;2023-05-01T01:41:43;7.83;;;6.40;;
42886;SDS011;29032;56.028;92.904;2023-05-01T01:46:51;8.93;;;6.70;;
42886;SDS011;29032;56.028;92.904;2023-05-01T01:51:56;8.70;;;6.53;;
42886;SDS011;29032;56.028;92.904;2023-05-01T01:57:02;7.22;;;6.13;;
42886;SDS011;29032;56.028;92.904;2023-05-01T02:07:31;7.90;;;6.00;;
42886;SDS011;29032;56.028;92.904;2023-05-01T02:12:34;9.30;;;5.97;;
42886;SDS011;29032;56.028;92.904;2023-05-01T02:17:38;7.10;;;6.40;;
42886;SDS011;29032;56.028;92.904;2023-05-01T02:22:44;8.67;;;6.83;;
42886;SDS011;29032;56.028;92.904;2023-05-01T02:28:06;11.13;;;6.50;;
42886;SDS011;29032;56.028;92.904;2023-05-01T02:33:12;6.80;;;5.97;;
42886;SDS011;29032;56.028;92.904;2023-05-01T02:38:16;9.23;;;6.60;;
42886;SDS011;29032;56.028;92.904;2023-05-01T02:43:20;8.90;;;7.07;;
42886;SDS011;29032;56.028;92.904;2023-05-01T02:48:23;8.57;;;6.60;;
42886;SDS011;29032;56.028;92.904;2023-05-01T02:53:29;6.50;;;5.90;;
42886;SDS011;29032;56.028;92.904;2023-05-01T02:58:39;7.03;;;5.43;;
42886;SDS011;29032;56.028;92.904;2023-05-01T03:03:42;6.10;;;5.50;;
42886;SDS011;29032;56.028;92.904;2023-05-01T03:14:05;6.50;;;5.57;;
42886;SDS011;29032;56.028;92.904;2023-05-01T03:19:25;6.97;;;6.27;;
42886;SDS011;29032;56.028;92.904;2023-05-01T03:24:29;7.30;;;5.73;;
42886;SDS011;29032;56.028;92.904;2023-05-01T03:29:31;8.37;;;6.23;;
42886;SDS011;29032;56.028;92.904;2023-05-01T03:34:33;9.20;;;6.37;;
42886;SDS011;29032;56.028;92.904;2023-05-01T03:39:37;7.23;;;6.10;;
42886;SDS011;29032;56.028;92.904;2023-05-01T03:44:57;11.10;;;7.33;;
42886;SDS011;29032;56.028;92.904;2023-05-01T03:50:00;9.43;;;6.23;;
42886;SDS011;29032;56.028;92.904;2023-05-01T03:55:04;5.93;;;5.03;;
42886;SDS011;29032;56.028;92.904;2023-05-01T04:11:12;7.50;;;5.73;;
42886;SDS011;29032;56.028;92.904;2023-05-01T04:16:15;6.80;;;5.50;;
42886;SDS011;29032;56.028;92.904;2023-05-01T04:21:17;6.90;;;5.77;;
42886;SDS011;29032;56.028;92.904;2023-05-01T04:26:24;10.83;;;6.53;;
42886;SDS011;29032;56.028;92.904;2023-05-01T04:31:26;8.53;;;6.30;;
42886;SDS011;29032;56.028;92.904;2023-05-01T04:36:28;8.73;;;5.90;;
42886;SDS011;29032;56.028;92.904;2023-05-01T04:41:50;8.97;;;6.30;;
42886;SDS011;29032;56.028;92.904;2023-05-01T04:46:52;6.73;;;5.40;;
42886;SDS011;29032;56.028;92.904;2023-05-01T04:51:54;9.47;;;5.60;;
42886;SDS011;29032;56.028;92.904;2023-05-01T04:57:00;6.87;;;5.80;;
42886;SDS011;29032;56.028;92.904;2023-05-01T05:02:02;8.10;;;6.33;;
42886;SDS011;29032;56.028;92.904;2023-05-01T05:07:04;7.53;;;6.63;;
42886;SDS011;29032;56.028;92.904;2023-05-01T05:12:27;7.33;;;6.10;;
42886;SDS011;29032;56.028;92.904;2023-05-01T05:17:30;7.70;;;5.97;;
42886;SDS011;29032;56.028;92.904;2023-05-01T05:22:34;7.33;;;5.73;;
42886;SDS011;29032;56.028;92.904;2023-05-01T05:27:55;8.37;;;6.00;;
42886;SDS011;29032;56.028;92.904;2023-05-01T05:32:57;18.23;;;10.50;;
42886;SDS011;29032;56.028;92.904;2023-05-01T05:37:59;12.87;;;8.47;;
42886;SDS011;29032;56.028;92.904;2023-05-01T05:43:04;11.70;;;7.80;;
42886;SDS011;29032;56.028;92.904;2023-05-01T05:48:06;7.10;;;6.23;;
42886;SDS011;29032;56.028;92.904;2023-05-01T05:53:12;8.97;;;5.20;;
42886;SDS011;29032;56.028;92.904;2023-05-01T05:58:18;6.43;;;5.70;;
42886;SDS011;29032;56.028;92.904;2023-05-01T06:03:22;6.80;;;5.53;;
42886;SDS011;29032;56.028;92.904;2023-05-01T06:08:26;7.80;;;6.07;;
42886;SDS011;29032;56.028;92.904;2023-05-01T06:13:30;11.50;;;7.90;;
42886;SDS011;29032;56.028;92.904;2023-05-01T06:18:32;6.63;;;5.73;;
42886;SDS011;29032;56.028;92.904;2023-05-01T06:23:35;9.10;;;5.60;;
42886;SDS011;29032;56.028;92.904;2023-05-01T06:29:01;9.73;;;6.70;;
42886;SDS011;29032;56.028;92.904;2023-05-01T06:34:22;9.20;;;5.80;;
42886;SDS011;29032;56.028;92.904;2023-05-01T06:39:27;8.97;;;5.93;;
42886;SDS011;29032;56.028;92.904;2023-05-01T06:44:30;9.13;;;6.57;;
42886;SDS011;29032;56.028;92.904;2023-05-01T06:49:32;7.17;;;5.43;;
42886;SDS011;29032;56.028;92.904;2023-05-01T06:54:53;12.47;;;5.43;;
42886;SDS011;29032;56.028;92.904;2023-05-01T06:59:57;6.87;;;4.73;;
42886;SDS011;29032;56.028;92.904;2023-05-01T07:04:59;7.67;;;4.63;;
42886;SDS011;29032;56.028;92.904;2023-05-01T07:15:41;5.63;;;4.33;;
42886;SDS011;29032;56.028;92.904;2023-05-01T07:21:01;7.73;;;4.97;;
42886;SDS011;29032;56.028;92.904;2023-05-01T07:26:03;7.13;;;5.60;;
42886;SDS011;29032;56.028;92.904;2023-05-01T07:36:46;7.03;;;5.33;;
42886;SDS011;29032;56.028;92.904;2023-05-01T07:41:47;7.23;;;6.03;;
42886;SDS011;29032;56.028;92.904;2023-05-01T07:46:51;9.43;;;4.73;;
42886;SDS011;29032;56.028;92.904;2023-05-01T07:51:53;10.50;;;5.33;;
42886;SDS011;29032;56.028;92.904;2023-05-01T07:56:55;8.07;;;4.80;;
42886;SDS011;29032;56.028;92.904;2023-05-01T08:01:59;9.73;;;5.00;;
42886;SDS011;29032;56.028;92.904;2023-05-01T08:07:01;5.67;;;4.70;;
42886;SDS011;29032;56.028;92.904;2023-05-01T08:12:03;10.33;;;4.80;;
42886;SDS011;29032;56.028;92.904;2023-05-01T08:17:07;7.53;;;4.80;;
42886;SDS011;29032;56.028;92.904;2023-05-01T08:22:09;6.27;;;5.20;;
42886;SDS011;29032;56.028;92.904;2023-05-01T08:32:33;10.50;;;7.13;;
42886;SDS011;29032;56.028;92.904;2023-05-01T08:37:35;8.10;;;6.30;;
42886;SDS011;29032;56.028;92.904;2023-05-01T08:42:37;7.07;;;5.40;;
42886;SDS011;29032;56.028;92.904;2023-05-01T08:47:58;5.83;;;5.10;;
42886;SDS011;29032;56.028;92.904;2023-05-01T08:53:01;7.33;;;5.30;;
42886;SDS011;29032;56.028;92.904;2023-05-01T08:58:03;8.33;;;5.70;;
42886;SDS011;29032;56.028;92.904;2023-05-01T09:03:27;8.23;;;5.00;;
42886;SDS011;29032;56.028;92.904;2023-05-01T09:08:30;5.27;;;4.63;;
42886;SDS011;29032;56.028;92.904;2023-05-01T09:13:33;5.37;;;4.50;;
42886;SDS011;29032;56.028;92.904;2023-05-01T09:18:37;7.13;;;5.30;;
42886;SDS011;29032;56.028;92.904;2023-05-01T09:23:40;10.43;;;7.57;;
42886;SDS011;29032;56.028;92.904;2023-05-01T09:28:42;10.50;;;7.63;;
42886;SDS011;29032;56.028;92.904;2023-05-01T09:39:06;6.93;;;4.67;;
42886;SDS011;29032;56.028;92.904;2023-05-01T09:44:16;6.03;;;4.70;;
42886;SDS011;29032;56.028;92.904;2023-05-01T09:49:20;5.67;;;4.57;;
42886;SDS011;29032;56.028;92.904;2023-05-01T09:55:12;7.70;;;5.23;;
42886;SDS011;29032;56.028;92.904;2023-05-01T10:00:15;7.10;;;5.20;;
42886;SDS011;29032;56.028;92.904;2023-05-01T10:05:19;5.43;;;4.63;;
42886;SDS011;29032;56.028;92.904;2023-05-01T10:10:21;5.13;;;4.63;;
42886;SDS011;29032;56.028;92.904;2023-05-01T10:15:34;7.17;;;5.30;;
42886;SDS011;29032;56.028;92.904;2023-05-01T10:20:38;8.10;;;5.53;;
42886;SDS011;29032;56.028;92.904;2023-05-01T10:25:41;10.73;;;7.47;;
42886;SDS011;29032;56.028;92.904;2023-05-01T10:31:03;7.90;;;6.57;;
42886;SDS011;29032;56.028;92.904;2023-05-01T10:36:08;9.27;;;6.37;;
42886;SDS011;29032;56.028;92.904;2023-05-01T10:41:14;8.23;;;6.00;;
42886;SDS011;29032;56.028;92.904;2023-05-01T10:46:25;9.37;;;5.87;;
42886;SDS011;29032;56.028;92.904;2023-05-01T10:57:07;11.03;;;7.40;;
42886;SDS011;29032;56.028;92.904;2023-05-01T11:02:27;11.50;;;6.93;;
42886;SDS011;29032;56.028;92.904;2023-05-01T11:07:31;10.33;;;7.00;;
42886;SDS011;29032;56.028;92.904;2023-05-01T11:18:44;16.15;;;10.55;;
42886;SDS011;29032;56.028;92.904;2023-05-01T11:24:06;11.67;;;7.63;;
42886;SDS011;29032;56.028;92.904;2023-05-01T11:29:29;10.17;;;6.43;;
42886;SDS011;29032;56.028;92.904;2023-05-01T11:39:53;8.57;;;6.10;;
42886;SDS011;29032;56.028;92.904;2023-05-01T11:45:05;10.53;;;6.10;;
42886;SDS011;29032;56.028;92.904;2023-05-01T11:50:08;10.77;;;6.43;;
42886;SDS011;29032;56.028;92.904;2023-05-01T11:55:12;8.57;;;6.10;;
42886;SDS011;29032;56.028;92.904;2023-05-01T12:00:15;8.33;;;5.77;;
42886;SDS011;29032;56.028;92.904;2023-05-01T12:05:44;9.50;;;5.67;;
42886;SDS011;29032;56.028;92.904;2023-05-01T12:10:48;10.10;;;6.47;;
42886;SDS011;29032;56.028;92.904;2023-05-01T12:15:52;8.67;;;6.67;;
42886;SDS011;29032;56.028;92.904;2023-05-01T12:20:54;11.30;;;6.80;;
42886;SDS011;29032;56.028;92.904;2023-05-01T12:26:17;9.80;;;6.50;;
42886;SDS011;29032;56.028;92.904;2023-05-01T12:36:51;10.37;;;5.80;;
42886;SDS011;29032;56.028;92.904;2023-05-01T12:41:55;7.70;;;5.80;;
42886;SDS011;29032;56.028;92.904;2023-05-01T12:47:16;13.30;;;8.50;;
42886;SDS011;29032;56.028;92.904;2023-05-01T12:52:24;18.37;;;10.37;;
42886;SDS011;29032;56.028;92.904;2023-05-01T12:57:29;9.10;;;6.43;;
42886;SDS011;29032;56.028;92.904;2023-05-01T13:02:32;9.40;;;7.03;;
42886;SDS011;29032;56.028;92.904;2023-05-01T13:07:34;8.10;;;5.80;;
42886;SDS011;29032;56.028;92.904;2023-05-01T13:12:43;7.83;;;5.67;;
42886;SDS011;29032;56.028;92.904;2023-05-01T13:17:45;7.93;;;6.40;;
42886;SDS011;29032;56.028;92.904;2023-05-01T13:22:47;10.77;;;7.97;;
42886;SDS011;29032;56.028;92.904;2023-05-01T13:27:52;13.43;;;7.77;;
42886;SDS011;29032;56.028;92.904;2023-05-01T13:33:13;17.90;;;11.00;;
42886;SDS011;29032;56.028;92.904;2023-05-01T13:38:15;21.30;;;12.67;;
42886;SDS011;29032;56.028;92.904;2023-05-01T13:43:19;29.20;;;16.13;;
42886;SDS011;29032;56.028;92.904;2023-05-01T13:48:21;30.40;;;17.57;;
42886;SDS011;29032;56.028;92.904;2023-05-01T13:53:23;33.53;;;20.77;;
42886;SDS011;29032;56.028;92.904;2023-05-01T13:58:45;27.00;;;15.43;;
42886;SDS011;29032;56.028;92.904;2023-05-01T14:09:09;22.10;;;13.50;;
42886;SDS011;29032;56.028;92.904;2023-05-01T14:14:14;21.67;;;12.30;;
42886;SDS011;29032;56.028;92.904;2023-05-01T14:19:17;18.40;;;11.33;;
42886;SDS011;29032;56.028;92.904;2023-05-01T14:24:19;26.93;;;14.77;;
42886;SDS011;29032;56.028;92.904;2023-05-01T14:34:43;36.57;;;18.60;;
42886;SDS011;29032;56.028;92.904;2023-05-01T14:39:45;32.97;;;17.60;;
42886;SDS011;29032;56.028;92.904;2023-05-01T14:44:49;33.73;;;17.80;;
42886;SDS011;29032;56.028;92.904;2023-05-01T14:49:51;22.27;;;14.17;;
42886;SDS011;29032;56.028;92.904;2023-05-01T14:55:12;16.37;;;10.27;;
42886;SDS011;29032;56.028;92.904;2023-05-01T15:00:19;14.27;;;9.37;;
42886;SDS011;29032;56.028;92.904;2023-05-01T15:05:39;15.83;;;10.37;;
42886;SDS011;29032;56.028;92.904;2023-05-01T15:10:59;19.33;;;12.20;;
42886;SDS011;29032;56.028;92.904;2023-05-01T15:16:03;20.40;;;11.23;;
42886;SDS011;29032;56.028;92.904;2023-05-01T15:21:06;23.57;;;13.17;;
42886;SDS011;29032;56.028;92.904;2023-05-01T15:26:08;21.03;;;12.83;;
42886;SDS011;29032;56.028;92.904;2023-05-01T15:31:12;24.73;;;12.37;;
42886;SDS011;29032;56.028;92.904;2023-05-01T15:36:14;42.40;;;24.13;;
42886;SDS011;29032;56.028;92.904;2023-05-01T15:41:16;35.80;;;18.60;;
42886;SDS011;29032;56.028;92.904;2023-05-01T15:46:19;24.77;;;15.57;;
42886;SDS011;29032;56.028;92.904;2023-05-01T15:51:21;24.93;;;13.93;;
42886;SDS011;29032;56.028;92.904;2023-05-01T15:56:23;25.30;;;13.00;;
42886;SDS011;29032;56.028;92.904;2023-05-01T16:01:45;22.57;;;14.00;;
42886;SDS011;29032;56.028;92.904;2023-05-01T16:06:47;21.73;;;13.10;;
42886;SDS011;29032;56.028;92.904;2023-05-01T16:11:49;19.83;;;12.03;;
42886;SDS011;29032;56.028;92.904;2023-05-01T16:16:53;14.03;;;10.07;;
42886;SDS011;29032;56.028;92.904;2023-05-01T16:22:13;13.03;;;8.57;;
42886;SDS011;29032;56.028;92.904;2023-05-01T16:27:34;19.73;;;10.37;;
42886;SDS011;29032;56.028;92.904;2023-05-01T16:32:41;32.93;;;18.43;;
42886;SDS011;29032;56.028;92.904;2023-05-01T16:37:44;35.93;;;19.23;;
42886;SDS011;29032;56.028;92.904;2023-05-01T16:42:48;38.20;;;22.20;;
42886;SDS011;29032;56.028;92.904;2023-05-01T16:47:52;42.17;;;21.27;;
42886;SDS011;29032;56.028;92.904;2023-05-01T16:52:54;51.87;;;27.70;;
42886;SDS011;29032;56.028;92.904;2023-05-01T17:27:08;41.63;;;19.97;;
42886;SDS011;29032;56.028;92.904;2023-05-01T17:32:28;36.93;;;18.07;;
42886;SDS011;29032;56.028;92.904;2023-05-01T17:37:30;25.40;;;17.17;;
42886;SDS011;29032;56.028;92.904;2023-05-01T17:42:34;28.00;;;14.73;;
42886;SDS011;29032;56.028;92.904;2023-05-01T17:47:54;22.20;;;13.70;;
42886;SDS011;29032;56.028;92.904;2023-05-01T17:52:56;20.67;;;12.43;;
42886;SDS011;29032;56.028;92.904;2023-05-01T17:58:00;18.10;;;11.47;;
42886;SDS011;29032;56.028;92.904;2023-05-01T18:08:02;17.33;;;10.13;;
42886;SDS011;29032;56.028;92.904;2023-05-01T18:17:14;17.13;;;9.73;;
42886;SDS011;29032;56.028;92.904;2023-05-01T18:22:16;15.13;;;10.07;;
42886;SDS011;29032;56.028;92.904;2023-05-01T18:27:18;17.47;;;10.60;;
42886;SDS011;29032;56.028;92.904;2023-05-01T18:32:21;20.10;;;11.53;;
42886;SDS011;29032;56.028;92.904;2023-05-01T18:37:23;21.77;;;12.70;;
42886;SDS011;29032;56.028;92.904;2023-05-01T18:42:44;21.70;;;13.00;;
42886;SDS011;29032;56.028;92.904;2023-05-01T18:47:47;18.30;;;11.17;;
42886;SDS011;29032;56.028;92.904;2023-05-01T18:53:08;14.40;;;10.63;;
42886;SDS011;29032;56.028;92.904;2023-05-01T18:58:10;17.63;;;10.20;;
42886;SDS011;29032;56.028;92.904;2023-05-01T19:03:13;14.50;;;9.63;;
42886;SDS011;29032;56.028;92.904;2023-05-01T19:08:34;16.67;;;8.40;;
42886;SDS011;29032;56.028;92.904;2023-05-01T19:13:36;21.00;;;12.67;;
42886;SDS011;29032;56.028;92.904;2023-05-01T19:24:00;21.10;;;12.77;;
42886;SDS011;29032;56.028;92.904;2023-05-01T19:29:20;23.53;;;13.30;;
42886;SDS011;29032;56.028;92.904;2023-05-01T19:40:36;25.83;;;14.53;;
42886;SDS011;29032;56.028;92.904;2023-05-01T19:45:39;23.10;;;14.17;;
42886;SDS011;29032;56.028;92.904;2023-05-01T19:50:59;24.23;;;13.67;;
42886;SDS011;29032;56.028;92.904;2023-05-01T19:56:02;31.67;;;16.07;;
42886;SDS011;29032;56.028;92.904;2023-05-01T20:01:04;43.60;;;19.23;;
42886;SDS011;29032;56.028;92.904;2023-05-01T20:06:06;37.47;;;20.17;;
42886;SDS011;29032;56.028;92.904;2023-05-01T20:11:28;27.50;;;15.53;;
42886;SDS011;29032;56.028;92.904;2023-05-01T20:16:30;23.73;;;12.37;;
42886;SDS011;29032;56.028;92.904;2023-05-01T20:21:32;19.37;;;11.03;;
42886;SDS011;29032;56.028;92.904;2023-05-01T20:26:36;19.67;;;10.70;;
42886;SDS011;29032;56.028;92.904;2023-05-01T20:31:38;17.23;;;10.53;;
42886;SDS011;29032;56.028;92.904;2023-05-01T20:36:45;16.05;;;8.50;;
42886;SDS011;29032;56.028;92.904;2023-05-01T20:41:49;16.87;;;10.10;;
42886;SDS011;29032;56.028;92.904;2023-05-01T20:52:30;10.82;;;7.90;;
42886;SDS011;29032;56.028;92.904;2023-05-01T20:57:33;12.23;;;7.63;;
42886;SDS011;29032;56.028;92.904;2023-05-01T21:49:51;7.30;;;5.00;;
42886;SDS011;29032;56.028;92.904;2023-05-01T21:54:56;6.78;;;5.43;;
42886;SDS011;29032;56.028;92.904;2023-05-01T21:59:59;11.73;;;6.20;;
42886;SDS011;29032;56.028;92.904;2023-05-01T22:05:02;7.40;;;5.63;;
42886;SDS011;29032;56.028;92.904;2023-05-01T22:15:36;11.30;;;5.93;;
42886;SDS011;29032;56.028;92.904;2023-05-01T22:34:36;7.60;;;5.60;;
42886;SDS011;29032;56.028;92.904;2023-05-01T22:39:38;9.73;;;6.50;;
42886;SDS011;29032;56.028;92.904;2023-05-01T22:44:58;10.80;;;7.23;;
42886;SDS011;29032;56.028;92.904;2023-05-01T22:50:02;12.83;;;7.07;;
42886;SDS011;29032;56.028;92.904;2023-05-01T23:18:11;8.10;;;6.10;;
42886;SDS011;29032;56.028;92.904;2023-05-01T23:23:14;9.53;;;6.53;;
42886;SDS011;29032;56.028;92.904;2023-05-01T23:28:20;10.10;;;6.77;;
42886;SDS011;29032;56.028;92.904;2023-05-01T23:39:03;7.63;;;5.57;;
42886;SDS011;29032;56.028;92.904;2023-05-01T23:55:33;12.00;;;6.47;;
